sensor_id;sensor_type;location;lat;lon;timestamp;P1;durP1;ratioP1;P2;durP2;ratioP2
4738;SDS011;2383;48.632;10.156;2022-09-12T00:02:18;13.07;;;6.65;;
4738;SDS011;2383;48.632;10.156;2022-09-12T00:06:26;8.57;;;7.03;;
4738;SDS011;2383;48.632;10.156;2022-09-12T00:10:36;7.80;;;7.10;;
4738;SDS011;2383;48.632;10.156;2022-09-12T00:14:39;7.73;;;6.90;;
4738;SDS011;2383;48.632;10.156;2022-09-12T00:18:40;7.97;;;6.63;;
4738;SDS011;2383;48.632;10.156;2022-09-12T00:22:42;7.40;;;6.68;;
4738;SDS011;2383;48.632;10.156;2022-09-12T00:26:44;9.80;;;6.93;;
4738;SDS011;2383;48.632;10.156;2022-09-12T00:30:48;10.40;;;7.33;;
4738;SDS011;2383;48.632;10.156;2022-09-12T00:34:50;9.13;;;7.43;;
4738;SDS011;2383;48.632;10.156;2022-09-12T00:38:52;10.37;;;7.73;;
4738;SDS011;2383;48.632;10.156;2022-09-12T00:42:54;10.83;;;7.53;;
4738;SDS011;2383;48.632;10.156;2022-09-12T00:46:56;8.20;;;6.70;;
4738;SDS011;2383;48.632;10.156;2022-09-12T00:51:02;11.37;;;7.63;;
4738;SDS011;2383;48.632;10.156;2022-09-12T00:55:10;8.20;;;7.40;;
4738;SDS011;2383;48.632;10.156;2022-09-12T00:59:20;10.80;;;7.10;;
4738;SDS011;2383;48.632;10.156;2022-09-12T01:03:26;27.37;;;7.77;;
4738;SDS011;2383;48.632;10.156;2022-09-12T01:07:28;8.30;;;6.90;;
4738;SDS011;2383;48.632;10.156;2022-09-12T01:11:31;6.30;;;5.70;;
4738;SDS011;2383;48.632;10.156;2022-09-12T01:15:36;7.07;;;6.37;;
4738;SDS011;2383;48.632;10.156;2022-09-12T01:50:08;6.00;;;5.17;;
4738;SDS011;2383;48.632;10.156;2022-09-12T01:54:20;6.63;;;5.47;;
4738;SDS011;2383;48.632;10.156;2022-09-12T01:58:33;5.77;;;5.27;;
4738;SDS011;2383;48.632;10.156;2022-09-12T02:03:03;5.93;;;5.40;;
4738;SDS011;2383;48.632;10.156;2022-09-12T02:07:16;6.07;;;5.50;;
4738;SDS011;2383;48.632;10.156;2022-09-12T02:11:21;10.63;;;5.33;;
4738;SDS011;2383;48.632;10.156;2022-09-12T02:15:25;5.43;;;4.93;;
4738;SDS011;2383;48.632;10.156;2022-09-12T02:19:58;7.83;;;5.50;;
4738;SDS011;2383;48.632;10.156;2022-09-12T02:24:03;6.80;;;4.93;;
4738;SDS011;2383;48.632;10.156;2022-09-12T02:28:10;5.90;;;5.30;;
4738;SDS011;2383;48.632;10.156;2022-09-12T02:36:36;6.13;;;5.03;;
4738;SDS011;2383;48.632;10.156;2022-09-12T02:40:43;10.97;;;5.03;;
4738;SDS011;2383;48.632;10.156;2022-09-12T02:44:45;5.67;;;4.87;;
4738;SDS011;2383;48.632;10.156;2022-09-12T02:48:47;6.57;;;4.77;;
4738;SDS011;2383;48.632;10.156;2022-09-12T02:52:49;5.60;;;5.10;;
4738;SDS011;2383;48.632;10.156;2022-09-12T02:56:53;7.83;;;5.20;;
4738;SDS011;2383;48.632;10.156;2022-09-12T03:01:02;5.90;;;5.30;;
4738;SDS011;2383;48.632;10.156;2022-09-12T03:05:14;7.47;;;5.50;;
4738;SDS011;2383;48.632;10.156;2022-09-12T03:09:30;5.50;;;4.90;;
4738;SDS011;2383;48.632;10.156;2022-09-12T03:22:53;5.20;;;4.70;;
4738;SDS011;2383;48.632;10.156;2022-09-12T03:31:18;5.80;;;4.70;;
4738;SDS011;2383;48.632;10.156;2022-09-12T03:35:21;5.27;;;4.77;;
4738;SDS011;2383;48.632;10.156;2022-09-12T03:39:24;5.80;;;5.20;;
4738;SDS011;2383;48.632;10.156;2022-09-12T03:43:27;6.67;;;5.03;;
4738;SDS011;2383;48.632;10.156;2022-09-12T03:47:29;6.47;;;5.17;;
4738;SDS011;2383;48.632;10.156;2022-09-12T03:51:30;5.43;;;4.90;;
4738;SDS011;2383;48.632;10.156;2022-09-12T03:55:32;5.37;;;4.87;;
4738;SDS011;2383;48.632;10.156;2022-09-12T03:59:34;5.03;;;4.60;;
4738;SDS011;2383;48.632;10.156;2022-09-12T04:03:36;9.53;;;5.70;;
4738;SDS011;2383;48.632;10.156;2022-09-12T04:07:38;5.73;;;5.00;;
4738;SDS011;2383;48.632;10.156;2022-09-12T04:11:40;6.00;;;4.97;;
4738;SDS011;2383;48.632;10.156;2022-09-12T04:15:42;5.40;;;4.90;;
4738;SDS011;2383;48.632;10.156;2022-09-12T04:19:43;8.43;;;4.87;;
4738;SDS011;2383;48.632;10.156;2022-09-12T04:23:45;5.80;;;5.20;;
4738;SDS011;2383;48.632;10.156;2022-09-12T04:27:47;11.30;;;7.37;;
4738;SDS011;2383;48.632;10.156;2022-09-12T04:31:49;10.97;;;7.47;;
4738;SDS011;2383;48.632;10.156;2022-09-12T04:35:50;5.60;;;5.10;;
4738;SDS011;2383;48.632;10.156;2022-09-12T04:39:52;6.00;;;5.03;;
4738;SDS011;2383;48.632;10.156;2022-09-12T04:43:59;5.07;;;4.57;;
4738;SDS011;2383;48.632;10.156;2022-09-12T04:48:08;6.33;;;5.20;;
4738;SDS011;2383;48.632;10.156;2022-09-12T04:52:09;5.77;;;4.50;;
4738;SDS011;2383;48.632;10.156;2022-09-12T04:56:11;6.90;;;5.07;;
4738;SDS011;2383;48.632;10.156;2022-09-12T05:00:13;6.53;;;5.10;;
4738;SDS011;2383;48.632;10.156;2022-09-12T05:04:15;6.00;;;5.30;;
4738;SDS011;2383;48.632;10.156;2022-09-12T05:08:17;5.37;;;4.87;;
4738;SDS011;2383;48.632;10.156;2022-09-12T05:12:18;5.93;;;5.23;;
4738;SDS011;2383;48.632;10.156;2022-09-12T05:16:20;6.83;;;4.90;;
4738;SDS011;2383;48.632;10.156;2022-09-12T05:20:25;5.60;;;4.97;;
4738;SDS011;2383;48.632;10.156;2022-09-12T05:24:26;7.20;;;5.47;;
4738;SDS011;2383;48.632;10.156;2022-09-12T05:28:38;6.70;;;5.13;;
4738;SDS011;2383;48.632;10.156;2022-09-12T05:32:40;5.80;;;4.90;;
4738;SDS011;2383;48.632;10.156;2022-09-12T05:36:42;7.63;;;5.30;;
4738;SDS011;2383;48.632;10.156;2022-09-12T05:40:43;11.23;;;5.33;;
4738;SDS011;2383;48.632;10.156;2022-09-12T05:44:45;5.97;;;5.07;;
4738;SDS011;2383;48.632;10.156;2022-09-12T05:48:47;6.07;;;4.63;;
4738;SDS011;2383;48.632;10.156;2022-09-12T05:52:56;8.30;;;5.07;;
4738;SDS011;2383;48.632;10.156;2022-09-12T05:56:58;12.10;;;5.20;;
4738;SDS011;2383;48.632;10.156;2022-09-12T06:01:00;12.20;;;5.47;;
4738;SDS011;2383;48.632;10.156;2022-09-12T06:05:03;6.67;;;5.00;;
4738;SDS011;2383;48.632;10.156;2022-09-12T06:09:06;5.70;;;5.10;;
4738;SDS011;2383;48.632;10.156;2022-09-12T06:13:08;5.00;;;4.50;;
4738;SDS011;2383;48.632;10.156;2022-09-12T06:17:10;6.90;;;5.43;;
4738;SDS011;2383;48.632;10.156;2022-09-12T06:21:12;7.33;;;5.33;;
4738;SDS011;2383;48.632;10.156;2022-09-12T06:25:15;12.17;;;5.87;;
4738;SDS011;2383;48.632;10.156;2022-09-12T06:29:17;9.83;;;6.20;;
4738;SDS011;2383;48.632;10.156;2022-09-12T06:33:19;9.77;;;6.07;;
4738;SDS011;2383;48.632;10.156;2022-09-12T06:37:21;6.57;;;5.77;;
4738;SDS011;2383;48.632;10.156;2022-09-12T06:41:23;7.27;;;5.63;;
4738;SDS011;2383;48.632;10.156;2022-09-12T06:45:25;15.60;;;6.77;;
4738;SDS011;2383;48.632;10.156;2022-09-12T06:49:27;7.80;;;6.07;;
4738;SDS011;2383;48.632;10.156;2022-09-12T06:53:30;8.67;;;5.87;;
4738;SDS011;2383;48.632;10.156;2022-09-12T06:57:37;7.97;;;6.17;;
4738;SDS011;2383;48.632;10.156;2022-09-12T07:01:39;7.75;;;6.20;;
4738;SDS011;2383;48.632;10.156;2022-09-12T07:05:44;6.67;;;5.53;;
4738;SDS011;2383;48.632;10.156;2022-09-12T07:09:46;7.63;;;6.30;;
4738;SDS011;2383;48.632;10.156;2022-09-12T07:13:49;6.90;;;6.27;;
4738;SDS011;2383;48.632;10.156;2022-09-12T07:17:56;10.70;;;7.00;;
4738;SDS011;2383;48.632;10.156;2022-09-12T07:21:58;10.07;;;8.02;;
4738;SDS011;2383;48.632;10.156;2022-09-12T07:25:59;11.20;;;8.40;;
4738;SDS011;2383;48.632;10.156;2022-09-12T07:30:03;8.77;;;7.87;;
4738;SDS011;2383;48.632;10.156;2022-09-12T07:34:06;12.87;;;9.40;;
4738;SDS011;2383;48.632;10.156;2022-09-12T07:38:08;13.57;;;10.20;;
4738;SDS011;2383;48.632;10.156;2022-09-12T07:42:09;12.30;;;10.57;;
4738;SDS011;2383;48.632;10.156;2022-09-12T07:46:12;15.27;;;10.73;;
4738;SDS011;2383;48.632;10.156;2022-09-12T07:50:15;13.15;;;10.88;;
4738;SDS011;2383;48.632;10.156;2022-09-12T07:54:17;17.37;;;13.07;;
4738;SDS011;2383;48.632;10.156;2022-09-12T07:58:18;16.33;;;12.68;;
4738;SDS011;2383;48.632;10.156;2022-09-12T08:02:20;16.97;;;13.30;;
4738;SDS011;2383;48.632;10.156;2022-09-12T08:06:23;16.95;;;13.23;;
4738;SDS011;2383;48.632;10.156;2022-09-12T08:10:26;16.38;;;12.40;;
4738;SDS011;2383;48.632;10.156;2022-09-12T08:14:27;16.02;;;11.73;;
4738;SDS011;2383;48.632;10.156;2022-09-12T08:18:30;13.55;;;11.80;;
4738;SDS011;2383;48.632;10.156;2022-09-12T08:22:33;13.82;;;11.60;;
4738;SDS011;2383;48.632;10.156;2022-09-12T08:26:34;14.20;;;11.40;;
4738;SDS011;2383;48.632;10.156;2022-09-12T08:30:37;17.50;;;11.32;;
4738;SDS011;2383;48.632;10.156;2022-09-12T08:34:38;16.70;;;11.50;;
4738;SDS011;2383;48.632;10.156;2022-09-12T08:38:41;14.57;;;11.25;;
4738;SDS011;2383;48.632;10.156;2022-09-12T08:42:51;14.30;;;11.43;;
4738;SDS011;2383;48.632;10.156;2022-09-12T08:47:29;16.35;;;12.45;;
4738;SDS011;2383;48.632;10.156;2022-09-12T08:51:37;13.45;;;11.75;;
4738;SDS011;2383;48.632;10.156;2022-09-12T08:59:43;13.55;;;11.90;;
4738;SDS011;2383;48.632;10.156;2022-09-12T09:03:51;15.45;;;13.75;;
4738;SDS011;2383;48.632;10.156;2022-09-12T09:08:27;16.58;;;13.05;;
4738;SDS011;2383;48.632;10.156;2022-09-12T09:16:57;12.82;;;10.25;;
4738;SDS011;2383;48.632;10.156;2022-09-12T09:21:20;12.82;;;9.73;;
4738;SDS011;2383;48.632;10.156;2022-09-12T09:25:36;9.57;;;8.60;;
4738;SDS011;2383;48.632;10.156;2022-09-12T09:29:57;11.73;;;9.65;;
4738;SDS011;2383;48.632;10.156;2022-09-12T09:33:59;10.07;;;8.43;;
4738;SDS011;2383;48.632;10.156;2022-09-12T09:38:15;8.38;;;6.82;;
4738;SDS011;2383;48.632;10.156;2022-09-12T09:46:36;8.07;;;5.70;;
4738;SDS011;2383;48.632;10.156;2022-09-12T09:50:38;7.72;;;5.85;;
4738;SDS011;2383;48.632;10.156;2022-09-12T09:58:49;3.60;;;3.30;;
4738;SDS011;2383;48.632;10.156;2022-09-12T10:07:05;4.55;;;3.30;;
4738;SDS011;2383;48.632;10.156;2022-09-12T10:11:16;4.78;;;3.20;;
4738;SDS011;2383;48.632;10.156;2022-09-12T10:15:21;6.78;;;3.75;;
4738;SDS011;2383;48.632;10.156;2022-09-12T10:19:34;5.50;;;3.50;;
4738;SDS011;2383;48.632;10.156;2022-09-12T10:23:37;7.43;;;3.20;;
4738;SDS011;2383;48.632;10.156;2022-09-12T10:27:41;4.22;;;3.30;;
4738;SDS011;2383;48.632;10.156;2022-09-12T10:31:47;4.38;;;3.97;;
4738;SDS011;2383;48.632;10.156;2022-09-12T10:35:52;4.15;;;3.83;;
4738;SDS011;2383;48.632;10.156;2022-09-12T10:39:55;4.68;;;4.10;;
4738;SDS011;2383;48.632;10.156;2022-09-12T10:44:23;6.88;;;4.15;;
4738;SDS011;2383;48.632;10.156;2022-09-12T10:48:28;4.30;;;3.90;;
4738;SDS011;2383;48.632;10.156;2022-09-12T10:52:34;4.78;;;4.28;;
4738;SDS011;2383;48.632;10.156;2022-09-12T10:56:48;4.38;;;3.47;;
4738;SDS011;2383;48.632;10.156;2022-09-12T11:00:54;3.60;;;3.30;;
4738;SDS011;2383;48.632;10.156;2022-09-12T11:05:12;4.38;;;3.97;;
4738;SDS011;2383;48.632;10.156;2022-09-12T11:13:47;3.45;;;3.15;;
4738;SDS011;2383;48.632;10.156;2022-09-12T11:22:22;3.95;;;2.83;;
4738;SDS011;2383;48.632;10.156;2022-09-12T11:35:30;5.03;;;3.15;;
4738;SDS011;2383;48.632;10.156;2022-09-12T11:39:36;3.58;;;3.28;;
4738;SDS011;2383;48.632;10.156;2022-09-12T11:43:41;3.78;;;2.40;;
4738;SDS011;2383;48.632;10.156;2022-09-12T11:47:45;3.35;;;2.67;;
4738;SDS011;2383;48.632;10.156;2022-09-12T11:56:07;3.55;;;2.53;;
4738;SDS011;2383;48.632;10.156;2022-09-12T12:00:19;3.63;;;2.55;;
4738;SDS011;2383;48.632;10.156;2022-09-12T12:04:23;4.57;;;3.10;;
4738;SDS011;2383;48.632;10.156;2022-09-12T12:08:36;3.47;;;2.30;;
4738;SDS011;2383;48.632;10.156;2022-09-12T12:12:39;3.90;;;2.30;;
4738;SDS011;2383;48.632;10.156;2022-09-12T12:16:43;2.40;;;2.20;;
4738;SDS011;2383;48.632;10.156;2022-09-12T12:20:45;1.98;;;1.83;;
4738;SDS011;2383;48.632;10.156;2022-09-12T12:49:39;2.75;;;2.28;;
4738;SDS011;2383;48.632;10.156;2022-09-12T12:53:41;5.82;;;1.80;;
4738;SDS011;2383;48.632;10.156;2022-09-12T12:57:47;2.00;;;1.90;;
4738;SDS011;2383;48.632;10.156;2022-09-12T13:01:54;2.17;;;1.98;;
4738;SDS011;2383;48.632;10.156;2022-09-12T13:06:00;2.05;;;1.92;;
4738;SDS011;2383;48.632;10.156;2022-09-12T13:10:06;3.10;;;1.67;;
4738;SDS011;2383;48.632;10.156;2022-09-12T13:18:49;3.47;;;2.05;;
4738;SDS011;2383;48.632;10.156;2022-09-12T13:22:57;2.42;;;2.00;;
4738;SDS011;2383;48.632;10.156;2022-09-12T13:26:59;2.30;;;1.98;;
4738;SDS011;2383;48.632;10.156;2022-09-12T13:31:22;3.63;;;2.00;;
4738;SDS011;2383;48.632;10.156;2022-09-12T13:39:37;3.35;;;2.13;;
4738;SDS011;2383;48.632;10.156;2022-09-12T13:43:45;2.42;;;2.22;;
4738;SDS011;2383;48.632;10.156;2022-09-12T13:47:52;2.33;;;2.13;;
4738;SDS011;2383;48.632;10.156;2022-09-12T13:52:03;2.50;;;1.90;;
4738;SDS011;2383;48.632;10.156;2022-09-12T13:56:14;2.33;;;2.13;;
4738;SDS011;2383;48.632;10.156;2022-09-12T14:00:17;3.92;;;2.85;;
4738;SDS011;2383;48.632;10.156;2022-09-12T14:04:24;2.80;;;2.00;;
4738;SDS011;2383;48.632;10.156;2022-09-12T14:08:45;2.25;;;2.05;;
4738;SDS011;2383;48.632;10.156;2022-09-12T14:12:48;3.58;;;2.28;;
4738;SDS011;2383;48.632;10.156;2022-09-12T14:16:52;2.10;;;1.90;;
4738;SDS011;2383;48.632;10.156;2022-09-12T14:20:55;2.65;;;1.83;;
4738;SDS011;2383;48.632;10.156;2022-09-12T14:25:00;1.75;;;1.50;;
4738;SDS011;2383;48.632;10.156;2022-09-12T14:29:06;1.65;;;1.55;;
4738;SDS011;2383;48.632;10.156;2022-09-12T14:37:10;2.63;;;1.85;;
4738;SDS011;2383;48.632;10.156;2022-09-12T14:41:12;1.50;;;1.40;;
4738;SDS011;2383;48.632;10.156;2022-09-12T14:49:29;1.40;;;1.30;;
4738;SDS011;2383;48.632;10.156;2022-09-12T14:53:37;1.75;;;1.65;;
4738;SDS011;2383;48.632;10.156;2022-09-12T14:58:05;1.75;;;1.38;;
4738;SDS011;2383;48.632;10.156;2022-09-12T15:06:27;4.47;;;1.50;;
4738;SDS011;2383;48.632;10.156;2022-09-12T15:10:31;3.45;;;1.20;;
4738;SDS011;2383;48.632;10.156;2022-09-12T15:14:36;3.83;;;1.52;;
4738;SDS011;2383;48.632;10.156;2022-09-12T15:18:37;3.30;;;1.70;;
4738;SDS011;2383;48.632;10.156;2022-09-12T15:22:39;1.50;;;1.40;;
4738;SDS011;2383;48.632;10.156;2022-09-12T15:26:42;2.50;;;1.27;;
4738;SDS011;2383;48.632;10.156;2022-09-12T15:30:45;4.68;;;1.80;;
4738;SDS011;2383;48.632;10.156;2022-09-12T15:34:49;1.67;;;1.20;;
4738;SDS011;2383;48.632;10.156;2022-09-12T15:38:53;4.80;;;2.08;;
4738;SDS011;2383;48.632;10.156;2022-09-12T15:42:56;1.95;;;1.75;;
4738;SDS011;2383;48.632;10.156;2022-09-12T15:46:58;3.67;;;1.95;;
4738;SDS011;2383;48.632;10.156;2022-09-12T15:51:00;1.80;;;1.70;;
4738;SDS011;2383;48.632;10.156;2022-09-12T15:55:02;3.30;;;2.38;;
4738;SDS011;2383;48.632;10.156;2022-09-12T15:59:04;4.78;;;1.90;;
4738;SDS011;2383;48.632;10.156;2022-09-12T16:03:08;4.63;;;1.70;;
4738;SDS011;2383;48.632;10.156;2022-09-12T16:07:18;2.05;;;1.80;;
4738;SDS011;2383;48.632;10.156;2022-09-12T16:11:23;2.58;;;1.75;;
4738;SDS011;2383;48.632;10.156;2022-09-12T16:15:42;2.42;;;1.80;;
4738;SDS011;2383;48.632;10.156;2022-09-12T16:19:43;3.38;;;1.95;;
4738;SDS011;2383;48.632;10.156;2022-09-12T16:23:45;3.03;;;2.17;;
4738;SDS011;2383;48.632;10.156;2022-09-12T16:27:48;2.78;;;1.98;;
4738;SDS011;2383;48.632;10.156;2022-09-12T16:31:50;3.65;;;2.15;;
4738;SDS011;2383;48.632;10.156;2022-09-12T16:35:52;3.42;;;2.22;;
4738;SDS011;2383;48.632;10.156;2022-09-12T16:40:01;2.58;;;1.83;;
4738;SDS011;2383;48.632;10.156;2022-09-12T16:44:04;3.75;;;2.20;;
4738;SDS011;2383;48.632;10.156;2022-09-12T16:48:05;2.45;;;2.25;;
4738;SDS011;2383;48.632;10.156;2022-09-12T16:52:07;2.78;;;2.25;;
4738;SDS011;2383;48.632;10.156;2022-09-12T16:56:10;3.58;;;1.92;;
4738;SDS011;2383;48.632;10.156;2022-09-12T17:00:12;4.07;;;2.10;;
4738;SDS011;2383;48.632;10.156;2022-09-12T17:04:14;2.88;;;2.50;;
4738;SDS011;2383;48.632;10.156;2022-09-12T17:08:16;3.10;;;2.75;;
4738;SDS011;2383;48.632;10.156;2022-09-12T17:12:18;4.28;;;2.42;;
4738;SDS011;2383;48.632;10.156;2022-09-12T17:16:20;5.30;;;2.92;;
4738;SDS011;2383;48.632;10.156;2022-09-12T17:20:23;3.15;;;2.60;;
4738;SDS011;2383;48.632;10.156;2022-09-12T17:24:24;3.25;;;2.67;;
4738;SDS011;2383;48.632;10.156;2022-09-12T17:28:26;4.03;;;2.40;;
4738;SDS011;2383;48.632;10.156;2022-09-12T17:32:29;2.47;;;2.28;;
4738;SDS011;2383;48.632;10.156;2022-09-12T17:36:30;3.17;;;2.40;;
4738;SDS011;2383;48.632;10.156;2022-09-12T17:40:36;2.38;;;2.17;;
4738;SDS011;2383;48.632;10.156;2022-09-12T17:44:57;7.95;;;2.80;;
4738;SDS011;2383;48.632;10.156;2022-09-12T17:48:59;2.83;;;2.40;;
4738;SDS011;2383;48.632;10.156;2022-09-12T17:53:02;4.65;;;2.40;;
4738;SDS011;2383;48.632;10.156;2022-09-12T17:57:04;3.33;;;2.50;;
4738;SDS011;2383;48.632;10.156;2022-09-12T18:01:07;4.28;;;2.35;;
4738;SDS011;2383;48.632;10.156;2022-09-12T18:05:30;3.33;;;2.92;;
4738;SDS011;2383;48.632;10.156;2022-09-12T18:09:32;3.13;;;2.70;;
4738;SDS011;2383;48.632;10.156;2022-09-12T18:13:36;4.22;;;2.65;;
4738;SDS011;2383;48.632;10.156;2022-09-12T18:17:38;2.80;;;2.60;;
4738;SDS011;2383;48.632;10.156;2022-09-12T18:21:40;4.88;;;3.03;;
4738;SDS011;2383;48.632;10.156;2022-09-12T18:25:41;7.68;;;2.53;;
4738;SDS011;2383;48.632;10.156;2022-09-12T18:29:43;2.97;;;2.70;;
4738;SDS011;2383;48.632;10.156;2022-09-12T18:34:05;3.55;;;2.92;;
4738;SDS011;2383;48.632;10.156;2022-09-12T18:38:12;3.20;;;3.00;;
4738;SDS011;2383;48.632;10.156;2022-09-12T18:42:14;5.90;;;3.03;;
4738;SDS011;2383;48.632;10.156;2022-09-12T18:46:16;3.50;;;3.20;;
4738;SDS011;2383;48.632;10.156;2022-09-12T18:50:19;3.75;;;3.03;;
4738;SDS011;2383;48.632;10.156;2022-09-12T18:54:21;4.63;;;3.53;;
4738;SDS011;2383;48.632;10.156;2022-09-12T18:58:23;4.88;;;3.13;;
4738;SDS011;2383;48.632;10.156;2022-09-12T19:02:25;4.07;;;3.10;;
4738;SDS011;2383;48.632;10.156;2022-09-12T19:06:31;3.63;;;2.60;;
4738;SDS011;2383;48.632;10.156;2022-09-12T19:10:40;4.07;;;2.80;;
4738;SDS011;2383;48.632;10.156;2022-09-12T19:14:42;3.15;;;2.85;;
4738;SDS011;2383;48.632;10.156;2022-09-12T19:18:44;3.80;;;2.35;;
4738;SDS011;2383;48.632;10.156;2022-09-12T19:22:48;6.03;;;3.00;;
4738;SDS011;2383;48.632;10.156;2022-09-12T19:26:49;3.60;;;3.30;;
4738;SDS011;2383;48.632;10.156;2022-09-12T19:30:51;3.67;;;3.30;;
4738;SDS011;2383;48.632;10.156;2022-09-12T19:34:53;3.30;;;3.00;;
4738;SDS011;2383;48.632;10.156;2022-09-12T19:38:55;3.20;;;2.90;;
4738;SDS011;2383;48.632;10.156;2022-09-12T19:42:57;3.65;;;3.33;;
4738;SDS011;2383;48.632;10.156;2022-09-12T19:46:59;3.95;;;3.50;;
4738;SDS011;2383;48.632;10.156;2022-09-12T19:51:01;4.93;;;3.10;;
4738;SDS011;2383;48.632;10.156;2022-09-12T19:55:04;4.18;;;3.28;;
4738;SDS011;2383;48.632;10.156;2022-09-12T19:59:06;4.55;;;3.10;;
4738;SDS011;2383;48.632;10.156;2022-09-12T20:03:08;3.88;;;2.97;;
4738;SDS011;2383;48.632;10.156;2022-09-12T20:07:10;3.55;;;2.88;;
4738;SDS011;2383;48.632;10.156;2022-09-12T20:11:13;4.05;;;3.20;;
4738;SDS011;2383;48.632;10.156;2022-09-12T20:15:21;3.95;;;3.40;;
4738;SDS011;2383;48.632;10.156;2022-09-12T20:19:22;3.75;;;3.30;;
4738;SDS011;2383;48.632;10.156;2022-09-12T20:23:24;4.72;;;3.30;;
4738;SDS011;2383;48.632;10.156;2022-09-12T20:27:26;6.03;;;3.58;;
4738;SDS011;2383;48.632;10.156;2022-09-12T20:31:27;3.83;;;3.17;;
4738;SDS011;2383;48.632;10.156;2022-09-12T20:35:30;4.63;;;3.90;;
4738;SDS011;2383;48.632;10.156;2022-09-12T20:39:32;5.68;;;3.40;;
4738;SDS011;2383;48.632;10.156;2022-09-12T20:43:34;4.63;;;3.35;;
4738;SDS011;2383;48.632;10.156;2022-09-12T20:47:38;4.22;;;3.28;;
4738;SDS011;2383;48.632;10.156;2022-09-12T20:51:40;4.60;;;2.97;;
4738;SDS011;2383;48.632;10.156;2022-09-12T20:55:48;5.10;;;3.35;;
4738;SDS011;2383;48.632;10.156;2022-09-12T20:59:53;3.70;;;3.35;;
4738;SDS011;2383;48.632;10.156;2022-09-12T21:03:55;5.63;;;3.70;;
4738;SDS011;2383;48.632;10.156;2022-09-12T21:07:58;5.28;;;3.72;;
4738;SDS011;2383;48.632;10.156;2022-09-12T21:12:00;4.18;;;3.78;;
4738;SDS011;2383;48.632;10.156;2022-09-12T21:16:03;4.35;;;3.60;;
4738;SDS011;2383;48.632;10.156;2022-09-12T21:20:05;6.22;;;3.75;;
4738;SDS011;2383;48.632;10.156;2022-09-12T21:24:12;4.28;;;3.75;;
4738;SDS011;2383;48.632;10.156;2022-09-12T21:28:15;4.35;;;3.88;;
4738;SDS011;2383;48.632;10.156;2022-09-12T21:32:17;4.28;;;3.83;;
4738;SDS011;2383;48.632;10.156;2022-09-12T21:36:18;5.47;;;3.70;;
4738;SDS011;2383;48.632;10.156;2022-09-12T21:40:20;4.25;;;3.78;;
4738;SDS011;2383;48.632;10.156;2022-09-12T21:44:22;7.13;;;3.85;;
4738;SDS011;2383;48.632;10.156;2022-09-12T21:48:24;5.13;;;3.72;;
4738;SDS011;2383;48.632;10.156;2022-09-12T21:52:25;4.90;;;3.65;;
4738;SDS011;2383;48.632;10.156;2022-09-12T21:56:29;3.78;;;3.40;;
4738;SDS011;2383;48.632;10.156;2022-09-12T22:00:31;6.80;;;3.35;;
4738;SDS011;2383;48.632;10.156;2022-09-12T22:04:33;4.68;;;4.18;;
4738;SDS011;2383;48.632;10.156;2022-09-12T22:08:35;6.55;;;4.10;;
4738;SDS011;2383;48.632;10.156;2022-09-12T22:12:37;5.28;;;3.88;;
4738;SDS011;2383;48.632;10.156;2022-09-12T22:16:45;5.43;;;3.88;;
4738;SDS011;2383;48.632;10.156;2022-09-12T22:20:47;4.90;;;4.00;;
4738;SDS011;2383;48.632;10.156;2022-09-12T22:24:49;4.88;;;4.05;;
4738;SDS011;2383;48.632;10.156;2022-09-12T22:28:51;5.75;;;4.05;;
4738;SDS011;2383;48.632;10.156;2022-09-12T22:32:54;5.57;;;3.83;;
4738;SDS011;2383;48.632;10.156;2022-09-12T22:36:55;4.82;;;3.70;;
4738;SDS011;2383;48.632;10.156;2022-09-12T22:40:57;4.15;;;3.75;;
4738;SDS011;2383;48.632;10.156;2022-09-12T22:45:04;6.13;;;4.40;;
4738;SDS011;2383;48.632;10.156;2022-09-12T22:49:07;5.82;;;3.95;;
4738;SDS011;2383;48.632;10.156;2022-09-12T22:53:09;5.00;;;3.92;;
4738;SDS011;2383;48.632;10.156;2022-09-12T22:57:11;4.05;;;3.65;;
4738;SDS011;2383;48.632;10.156;2022-09-12T23:01:13;5.32;;;3.88;;
4738;SDS011;2383;48.632;10.156;2022-09-12T23:05:15;3.97;;;3.50;;
4738;SDS011;2383;48.632;10.156;2022-09-12T23:09:17;3.83;;;3.53;;
4738;SDS011;2383;48.632;10.156;2022-09-12T23:13:18;6.32;;;3.72;;
4738;SDS011;2383;48.632;10.156;2022-09-12T23:17:20;4.20;;;3.80;;
4738;SDS011;2383;48.632;10.156;2022-09-12T23:21:22;4.43;;;3.97;;
4738;SDS011;2383;48.632;10.156;2022-09-12T23:25:24;5.32;;;3.95;;
4738;SDS011;2383;48.632;10.156;2022-09-12T23:29:26;8.02;;;3.97;;
4738;SDS011;2383;48.632;10.156;2022-09-12T23:33:28;4.70;;;4.20;;
4738;SDS011;2383;48.632;10.156;2022-09-12T23:37:31;4.87;;;4.30;;
4738;SDS011;2383;48.632;10.156;2022-09-12T23:41:33;6.07;;;4.53;;
4738;SDS011;2383;48.632;10.156;2022-09-12T23:45:34;7.53;;;4.60;;
4738;SDS011;2383;48.632;10.156;2022-09-12T23:49:36;7.20;;;4.80;;
4738;SDS011;2383;48.632;10.156;2022-09-12T23:53:38;6.47;;;4.83;;
4738;SDS011;2383;48.632;10.156;2022-09-12T23:57:40;6.20;;;5.57;;
